Time;durP1;ratioP1;P1;durP2;ratioP2;P2;SDS_P1;SDS_P2;PMS_P1;PMS_P2;Temp;Humidity;BMP_temperature;BMP_pressure;BME280_temperature;BME280_humidity;BME280_pressure;Samples;Min_cycle;Max_cycle;Signal;HPM_P1;HPM_P2
2023/11/17 00:00:52;;;;;;;13.52;8.23;;;;;;;-146.27;87.70;33370.75;5020720;28;20021;-72
2023/11/17 00:03:17;;;;;;;16.95;7.95;;;;;;;-146.27;87.32;33348.91;5034894;28;20030;-71
2023/11/17 00:05:43;;;;;;;14.25;7.35;;;;;;;-146.27;87.21;33344.94;5019244;28;20037;-71
2023/11/17 00:08:08;;;;;;;10.07;6.90;;;;;;;-146.27;86.88;33362.81;5026305;28;20017;-72
2023/11/17 00:10:34;;;;;;;14.23;7.82;;;;;;;-146.27;86.58;33348.91;5038269;28;20029;-71
2023/11/17 00:13:00;;;;;;;18.80;8.18;;;;;;;-146.27;86.48;33354.88;5021181;28;20045;-71
2023/11/17 00:15:25;;;;;;;12.85;7.90;;;;;;;-146.27;86.40;33350.91;5027125;28;20036;-72
2023/11/17 00:17:51;;;;;;;12.13;7.38;;;;;;;-146.27;86.59;33374.72;5020104;28;20061;-72
2023/11/17 00:20:19;;;;;;;12.35;7.53;;;;;;;-146.27;86.41;33348.91;5030697;28;20026;-71
2023/11/17 00:22:47;;;;;;;20.30;8.10;;;;;;;-146.27;86.86;33364.78;5030777;28;20029;-70
2023/11/17 00:25:17;;;;;;;12.90;8.02;;;;;;;-146.27;86.66;33352.88;5027476;28;20397;-71
2023/11/17 00:27:42;;;;;;;14.20;8.65;;;;;;;-146.27;87.60;33331.06;5040099;28;20028;-72
2023/11/17 00:30:08;;;;;;;14.77;8.15;;;;;;;-146.27;87.85;33315.19;5039250;28;20033;-71
2023/11/17 00:32:33;;;;;;;12.38;7.93;;;;;;;-146.27;86.92;33297.31;5037199;28;20061;-71
2023/11/17 00:35:00;;;;;;;18.58;8.13;;;;;;;-146.27;86.64;33317.16;5017512;28;20037;-71
2023/11/17 00:37:26;;;;;;;13.93;8.07;;;;;;;-146.27;86.66;33309.22;5026756;28;20108;-71
2023/11/17 00:39:54;;;;;;;14.93;8.50;;;;;;;-146.27;86.72;33352.88;5019995;28;20113;-71
2023/11/17 00:42:20;;;;;;;11.18;7.90;;;;;;;-146.27;86.75;33307.25;5021586;28;20104;-71
2023/11/17 00:44:46;;;;;;;11.85;8.02;;;;;;;-146.27;86.75;33327.09;5013176;28;20221;-71
2023/11/17 00:47:12;;;;;;;13.48;8.20;;;;;;;-146.27;86.72;33331.06;5031173;28;20029;-69
2023/11/17 00:49:39;;;;;;;20.95;8.52;;;;;;;-146.27;86.82;33346.94;5029757;28;20359;-72
2023/11/17 00:52:05;;;;;;;13.75;7.95;;;;;;;-146.27;87.43;33354.88;5029899;28;20021;-70
2023/11/17 00:54:36;;;;;;;13.98;8.43;;;;;;;-146.27;86.99;33335.03;5051134;28;20048;-71
2023/11/17 00:57:02;;;;;;;13.75;8.52;;;;;;;-146.27;86.95;33362.81;5035429;28;20067;-71
2023/11/17 00:59:28;;;;;;;13.07;7.90;;;;;;;-146.27;86.96;33331.06;5022564;28;20092;-71
2023/11/17 01:01:53;;;;;;;13.48;8.10;;;;;;;-146.27;87.13;33360.81;5033263;28;20479;-71
2023/11/17 01:04:19;;;;;;;18.85;8.23;;;;;;;-146.27;87.13;33335.03;5026047;28;20080;-70
2023/11/17 01:06:45;;;;;;;17.63;9.05;;;;;;;-146.27;87.25;33358.84;5043983;28;20025;-70
2023/11/17 01:09:10;;;;;;;13.48;7.93;;;;;;;-146.27;87.18;33315.19;5020714;28;20466;-71
2023/11/17 01:11:35;;;;;;;16.98;7.60;;;;;;;-146.27;87.11;33327.09;5019989;28;20032;-70
2023/11/17 01:14:01;;;;;;;16.23;7.30;;;;;;;-146.27;87.08;33325.09;5025419;28;20029;-71
2023/11/17 01:16:26;;;;;;;20.60;8.43;;;;;;;-146.27;87.05;33237.81;5018160;28;20100;-70
2023/11/17 01:18:51;;;;;;;16.52;8.98;;;;;;;-146.27;86.97;33311.22;5036363;28;20164;-71
2023/11/17 01:21:17;;;;;;;11.43;8.05;;;;;;;-146.27;87.55;33303.28;5017680;28;20057;-70
2023/11/17 01:23:42;;;;;;;12.98;8.45;;;;;;;-146.27;87.44;33335.03;5025771;28;20125;-71
2023/11/17 01:26:08;;;;;;;16.58;8.30;;;;;;;-146.27;87.39;33259.63;5025951;28;20026;-71
2023/11/17 01:28:33;;;;;;;12.43;8.38;;;;;;;-146.27;87.13;33311.22;5021626;28;20225;-71
2023/11/17 01:30:59;;;;;;;19.45;8.40;;;;;;;-146.27;87.09;33299.31;5029590;28;20025;-72
2023/11/17 01:33:24;;;;;;;15.05;8.52;;;;;;;-146.27;87.45;33339.00;5019927;28;20641;-72
2023/11/17 01:35:49;;;;;;;17.38;9.25;;;;;;;-146.27;87.40;33196.13;5024931;28;20036;-70
2023/11/17 01:38:15;;;;;;;15.60;8.40;;;;;;;-146.27;86.84;33313.19;5021809;28;20067;-71
2023/11/17 01:40:40;;;;;;;13.90;7.57;;;;;;;-146.27;86.78;33295.34;5020796;28;20041;-71
2023/11/17 01:43:06;;;;;;;15.18;8.10;;;;;;;-146.27;86.99;33299.31;5032395;28;20028;-70
2023/11/17 01:45:33;;;;;;;14.65;8.15;;;;;;;-146.27;87.16;33311.22;5032527;28;20438;-71
2023/11/17 01:47:59;;;;;;;13.93;8.38;;;;;;;-146.27;87.21;33323.13;5034638;28;20040;-70
2023/11/17 01:50:25;;;;;;;17.55;8.05;;;;;;;-146.27;87.20;33309.22;5028233;28;20037;-72
2023/11/17 01:52:51;;;;;;;14.55;7.35;;;;;;;-146.27;87.24;33317.16;5029328;28;20103;-71
2023/11/17 01:55:18;;;;;;;11.85;8.98;;;;;;;-146.27;87.51;33335.03;5032502;28;20445;-71
2023/11/17 01:57:45;;;;;;;12.68;8.73;;;;;;;-146.27;87.27;33315.19;5028959;28;20083;-69
2023/11/17 02:00:14;;;;;;;14.73;7.03;;;;;;;-146.27;87.08;33342.97;5024656;28;20029;-70
2023/11/17 02:02:43;;;;;;;12.80;7.50;;;;;;;-146.27;87.41;33350.91;5027824;28;20313;-70
2023/11/17 02:05:10;;;;;;;12.30;6.88;;;;;;;-146.27;86.94;33368.75;5024145;28;20037;-71
2023/11/17 02:07:54;;;;;;;16.15;8.60;;;;;;;-146.27;86.97;33350.91;5039103;28;20474;-71
2023/11/17 02:10:41;;;;;;;;;;;;;;;-146.27;86.80;33331.06;5036096;28;20032;-72
2023/11/17 02:13:25;;;;;;;14.00;7.38;;;;;;;-146.27;87.00;33360.81;5032917;28;20011;-71
2023/11/17 02:16:01;;;;;;;18.83;7.88;;;;;;;-146.27;87.13;33380.66;5038280;28;20489;-72
2023/11/17 02:18:30;;;;;;;19.85;8.23;;;;;;;-146.27;86.68;33342.97;5039508;28;20053;-71
2023/11/17 02:20:56;;;;;;;12.48;7.25;;;;;;;-146.27;86.84;33346.94;5036923;28;20761;-71
2023/11/17 02:23:25;;;;;;;16.13;7.75;;;;;;;-146.27;87.66;33329.06;5034873;28;20072;-71
2023/11/17 02:26:18;;;;;;;14.98;8.70;;;;;;;-146.27;87.69;33335.03;5036323;28;20024;-71
2023/11/17 02:29:00;;;;;;;12.38;7.38;;;;;;;-146.27;87.70;33329.06;5048718;28;20037;-71
2023/11/17 02:31:32;;;;;;;13.98;6.97;;;;;;;-146.27;87.27;33368.75;5028188;28;20026;-71
2023/11/17 02:34:08;;;;;;;11.70;8.10;;;;;;;-146.27;87.58;33321.13;5026177;28;20079;-71
2023/11/17 02:36:35;;;;;;;17.17;7.75;;;;;;;-146.27;87.32;33362.81;5016574;28;20551;-72
2023/11/17 02:39:21;;;;;;;13.25;8.07;;;;;;;-146.27;87.21;33323.13;5029897;28;20095;-70
2023/11/17 02:41:56;;;;;;;12.57;7.97;;;;;;;-146.27;87.43;33339.00;5009256;28;20025;-70
2023/11/17 02:44:29;;;;;;;12.00;7.65;;;;;;;-146.27;87.64;33329.06;5008875;28;20272;-70
2023/11/17 02:46:58;;;;;;;16.13;6.90;;;;;;;-146.27;87.11;33309.22;5019242;28;20037;-70
2023/11/17 02:49:33;;;;;;;12.80;7.00;;;;;;;-146.27;87.33;33342.97;5012331;28;20034;-70
2023/11/17 02:52:03;;;;;;;17.02;7.20;;;;;;;-146.27;87.16;33319.16;5009927;28;20036;-71
2023/11/17 02:54:30;;;;;;;14.25;6.32;;;;;;;-146.27;87.64;33331.06;5022526;28;20032;-72
2023/11/17 02:56:58;;;;;;;16.95;7.40;;;;;;;-146.27;87.00;33307.25;5032525;28;20068;-72
2023/11/17 02:59:24;;;;;;;15.02;7.22;;;;;;;-146.27;86.80;33319.16;5041097;28;20086;-69
2023/11/17 03:01:52;;;;;;;11.98;7.60;;;;;;;-146.27;86.69;33339.00;5035567;28;20450;-72
2023/11/17 03:04:18;;;;;;;15.57;6.70;;;;;;;-146.27;86.65;33315.19;5028211;28;20103;-71
2023/11/17 03:06:51;;;;;;;10.70;6.35;;;;;;;-146.27;86.60;33378.69;5028309;28;20099;-71
2023/11/17 03:09:22;;;;;;;15.60;6.90;;;;;;;-146.27;86.99;33309.22;5029087;28;20477;-71
2023/11/17 03:11:51;;;;;;;9.95;6.68;;;;;;;-146.27;87.25;33329.06;5032759;28;20092;-72
2023/11/17 03:14:24;;;;;;;12.25;6.75;;;;;;;-146.27;86.83;33366.78;5020421;28;20029;-71
2023/11/17 03:16:52;;;;;;;13.57;9.02;;;;;;;-146.27;87.20;33368.75;5018925;28;20026;-71
2023/11/17 03:19:17;;;;;;;16.25;9.40;;;;;;;-146.27;87.16;33337.00;5029809;28;20028;-71
2023/11/17 03:21:44;;;;;;;16.42;9.32;;;;;;;-146.27;87.46;33362.81;5038512;28;20032;-71
2023/11/17 03:24:17;;;;;;;15.73;8.50;;;;;;;-146.27;87.54;33366.78;5046868;28;20028;-70
2023/11/17 03:26:46;;;;;;;13.00;7.87;;;;;;;-146.27;87.63;33354.88;5036484;28;20021;-72
2023/11/17 03:29:14;;;;;;;16.10;7.70;;;;;;;-146.27;87.34;33342.97;5034315;28;20686;-72
2023/11/17 03:31:40;;;;;;;12.02;6.85;;;;;;;-146.27;88.00;33358.84;5034488;28;20034;-70
2023/11/17 03:34:09;;;;;;;10.88;6.65;;;;;;;-146.27;87.83;33350.91;5032118;28;20120;-71
2023/11/17 03:36:38;;;;;;;12.68;6.93;;;;;;;-146.27;87.16;33342.97;5026275;28;20091;-71
2023/11/17 03:39:03;;;;;;;16.13;7.65;;;;;;;-146.27;87.19;33350.91;5030131;28;20596;-71
2023/11/17 03:41:29;;;;;;;9.00;6.00;;;;;;;-146.27;87.29;33362.81;5027809;28;20112;-70
2023/11/17 03:43:54;;;;;;;11.43;6.65;;;;;;;-146.27;87.29;33398.53;5020229;28;20029;-71
2023/11/17 03:46:19;;;;;;;9.68;5.93;;;;;;;-146.27;87.10;33362.81;5030917;28;20028;-72
2023/11/17 03:48:45;;;;;;;10.60;7.00;;;;;;;-146.27;87.40;33398.53;5041338;28;20029;-71
2023/11/17 03:51:11;;;;;;;14.40;6.70;;;;;;;-146.27;87.88;33360.81;5042263;28;20128;-71
2023/11/17 03:53:36;;;;;;;17.30;6.80;;;;;;;-146.27;87.86;33362.81;5031695;28;20031;-71
2023/11/17 03:56:02;;;;;;;15.18;7.03;;;;;;;-146.27;87.95;33319.16;5033673;28;22513;-70
2023/11/17 03:58:27;;;;;;;13.40;6.20;;;;;;;-146.27;87.19;33372.72;5019249;28;20044;-71
2023/11/17 04:00:53;;;;;;;13.93;6.55;;;;;;;-146.27;87.24;33374.72;5029382;28;20032;-70
2023/11/17 04:03:19;;;;;;;12.55;6.47;;;;;;;-146.27;87.29;33386.63;5027919;28;20109;-70
2023/11/17 04:05:45;;;;;;;11.75;5.82;;;;;;;-146.27;86.89;33390.59;5041557;28;20036;-70
2023/11/17 04:08:10;;;;;;;12.90;5.88;;;;;;;-146.27;87.72;33388.59;5040715;28;20477;-72
2023/11/17 04:10:36;;;;;;;12.85;6.00;;;;;;;-146.27;87.24;33366.78;5014256;28;20029;-72
2023/11/17 04:13:01;;;;;;;15.18;6.45;;;;;;;-146.27;87.09;33374.72;5028638;28;20029;-71
2023/11/17 04:15:27;;;;;;;9.20;6.10;;;;;;;-146.27;87.14;33388.59;5033956;28;20030;-71
2023/11/17 04:17:52;;;;;;;11.77;6.50;;;;;;;-146.27;87.45;33366.78;5028445;28;20060;-71
2023/11/17 04:20:19;;;;;;;10.90;5.93;;;;;;;-146.27;87.05;33436.22;5020580;28;20028;-69
2023/11/17 04:22:44;;;;;;;8.82;5.75;;;;;;;-146.27;86.85;33426.28;5027298;28;20036;-71
2023/11/17 04:25:10;;;;;;;11.38;6.13;;;;;;;-146.27;86.88;33458.03;5029094;28;20660;-72
2023/11/17 04:27:39;;;;;;;12.07;6.15;;;;;;;-146.27;86.64;33408.44;5028402;28;20033;-70
2023/11/17 04:30:07;;;;;;;10.82;5.47;;;;;;;-146.27;86.84;33440.19;5024713;28;20041;-72
2023/11/17 04:32:34;;;;;;;10.93;5.57;;;;;;;-146.27;86.43;33414.41;5029190;28;20051;-71
2023/11/17 04:35:00;;;;;;;11.95;5.60;;;;;;;-146.27;86.56;33462.00;5029776;28;20394;-71
2023/11/17 04:37:25;;;;;;;8.00;5.15;;;;;;;-146.27;86.52;33489.78;5031920;28;20021;-71
2023/11/17 04:39:51;;;;;;;8.13;5.35;;;;;;;-146.27;86.75;33509.63;5029153;28;20389;-71
2023/11/17 04:42:16;;;;;;;10.32;5.32;;;;;;;-146.27;86.70;33469.94;5030353;28;20025;-71
2023/11/17 04:44:42;;;;;;;14.98;5.70;;;;;;;-146.27;86.72;33450.09;5021413;28;20105;-72
2023/11/17 04:47:09;;;;;;;13.27;5.32;;;;;;;-146.27;87.21;33485.81;5011437;28;20036;-72
2023/11/17 04:49:36;;;;;;;11.57;5.63;;;;;;;-146.27;87.16;33454.06;5016072;28;20025;-71
2023/11/17 04:52:02;;;;;;;11.90;5.32;;;;;;;-146.27;87.08;33477.88;5017751;28;20033;-71
2023/11/17 04:54:28;;;;;;;8.65;5.38;;;;;;;-146.27;87.05;33448.13;5025092;28;20064;-71
2023/11/17 04:56:55;;;;;;;11.40;5.15;;;;;;;-146.27;87.21;33464.00;5040959;28;20041;-71
2023/11/17 04:59:21;;;;;;;11.55;5.63;;;;;;;-146.27;86.97;33430.28;5019916;28;20727;-71
2023/11/17 05:01:46;;;;;;;11.98;6.53;;;;;;;-146.27;87.05;33464.00;5033168;28;20068;-71
2023/11/17 05:04:13;;;;;;;7.68;5.30;;;;;;;-146.27;87.16;33469.94;5015333;28;20100;-71
2023/11/17 05:06:39;;;;;;;10.23;5.22;;;;;;;-146.27;86.96;33446.13;5013340;28;22577;-71
2023/11/17 05:09:12;;;;;;;11.45;5.20;;;;;;;-146.27;87.08;33454.06;5028204;28;20037;-72
2023/11/17 05:11:38;;;;;;;10.30;5.45;;;;;;;-146.27;86.89;33483.84;5031640;28;20029;-71
2023/11/17 05:14:05;;;;;;;10.43;6.07;;;;;;;-146.27;87.14;33465.97;5028538;28;20036;-71
2023/11/17 05:16:33;;;;;;;10.63;5.03;;;;;;;-146.27;87.56;33465.97;5043903;28;20037;-71
2023/11/17 05:18:58;;;;;;;8.40;5.32;;;;;;;-146.27;87.72;33491.78;5030727;28;20042;-71
2023/11/17 05:21:23;;;;;;;10.27;5.80;;;;;;;-146.27;87.46;33469.94;5020024;28;20025;-70
2023/11/17 05:23:49;;;;;;;9.60;5.00;;;;;;;-146.27;87.13;33493.75;5025567;28;20032;-71
2023/11/17 05:26:14;;;;;;;11.60;5.75;;;;;;;-146.27;87.16;33483.84;5019971;28;20030;-71
2023/11/17 05:28:39;;;;;;;9.35;5.65;;;;;;;-146.27;87.56;33489.78;5032353;28;20029;-70
2023/11/17 05:31:05;;;;;;;14.70;6.28;;;;;;;-146.27;87.09;33458.03;5030502;28;20386;-72
2023/11/17 05:33:30;;;;;;;9.90;5.70;;;;;;;-146.27;87.09;33456.06;5030532;28;20075;-71
2023/11/17 05:35:58;;;;;;;10.90;6.13;;;;;;;-146.27;87.43;33503.69;5026485;28;20036;-71
2023/11/17 05:38:25;;;;;;;10.55;5.68;;;;;;;-146.27;87.07;33473.91;5027772;28;20394;-70
2023/11/17 05:40:51;;;;;;;11.68;5.43;;;;;;;-146.27;87.06;33458.03;5033989;28;20029;-71
2023/11/17 05:43:17;;;;;;;11.40;7.00;;;;;;;-146.27;87.05;33477.88;5041036;28;20033;-71
2023/11/17 05:45:42;;;;;;;12.07;6.30;;;;;;;-146.27;87.24;33434.22;5013400;28;20041;-72
2023/11/17 05:48:10;;;;;;;11.13;6.22;;;;;;;-146.27;88.16;33517.56;5027243;28;20068;-71
2023/11/17 05:50:36;;;;;;;12.27;6.60;;;;;;;-146.27;87.54;33485.81;5030675;28;20025;-71
2023/11/17 05:53:02;;;;;;;13.55;6.32;;;;;;;-146.27;87.54;33485.81;5010395;28;20079;-71
2023/11/17 05:55:27;;;;;;;15.32;6.25;;;;;;;-146.27;86.78;33464.00;5024189;28;20029;-70
2023/11/17 05:57:52;;;;;;;11.43;6.30;;;;;;;-146.27;86.75;33515.59;5035599;28;20036;-71
2023/11/17 06:00:19;;;;;;;10.48;6.97;;;;;;;-146.27;87.39;33517.56;5020742;28;20017;-70
2023/11/17 06:02:45;;;;;;;14.10;6.43;;;;;;;-146.27;87.49;33493.75;5027829;28;20095;-70
2023/11/17 06:05:13;;;;;;;14.82;6.72;;;;;;;-146.27;87.48;33545.34;5018737;28;20125;-72
2023/11/17 06:07:39;;;;;;;12.35;6.50;;;;;;;-146.27;86.88;33509.63;5029626;28;20489;-72
2023/11/17 06:10:05;;;;;;;13.65;7.15;;;;;;;-146.27;87.37;33529.47;5025759;28;20029;-71
2023/11/17 06:12:31;;;;;;;14.07;7.65;;;;;;;-146.27;87.52;33497.72;5029150;28;20029;-70
2023/11/17 06:14:57;;;;;;;15.57;7.40;;;;;;;-146.27;87.43;33521.53;5022963;28;20045;-70
2023/11/17 06:17:22;;;;;;;16.73;7.28;;;;;;;-146.27;87.36;33541.38;5022801;28;21530;-70
2023/11/17 06:19:48;;;;;;;12.32;7.13;;;;;;;-146.27;87.32;33517.56;5034107;28;20432;-71
2023/11/17 06:22:13;;;;;;;13.80;7.18;;;;;;;-146.27;87.34;33513.59;5032273;28;20068;-69
2023/11/17 06:24:38;;;;;;;17.20;7.55;;;;;;;-146.27;87.51;33501.69;5027565;28;20116;-70
2023/11/17 06:27:04;;;;;;;12.57;8.00;;;;;;;-146.27;87.28;33479.88;5040578;28;20524;-70
2023/11/17 06:29:29;;;;;;;14.48;8.73;;;;;;;-146.27;87.12;33493.75;5028670;28;20124;-70
2023/11/17 06:31:55;;;;;;;13.07;8.07;;;;;;;-146.27;87.65;33475.91;5031432;28;20473;-71
2023/11/17 06:34:20;;;;;;;15.05;7.93;;;;;;;-146.27;87.60;33434.22;5029691;28;20115;-72
2023/11/17 06:36:46;;;;;;;19.15;7.93;;;;;;;-146.27;87.73;33430.28;5044349;28;20036;-70
2023/11/17 06:39:16;;;;;;;20.13;8.80;;;;;;;-146.27;87.58;33450.09;5048643;28;20444;-71
2023/11/17 06:41:48;;;;;;;18.83;8.45;;;;;;;-146.27;87.54;33434.22;5026978;28;20025;-70
2023/11/17 06:44:18;;;;;;;16.38;8.68;;;;;;;-146.27;87.65;33432.25;5035041;28;20044;-72
2023/11/17 06:46:51;;;;;;;15.95;8.35;;;;;;;-146.27;87.58;33402.50;5046587;28;20083;-72
2023/11/17 06:49:22;;;;;;;20.90;10.40;;;;;;;-146.27;87.52;33438.19;5022778;28;20052;-73
2023/11/17 06:51:54;;;;;;;23.33;9.95;;;;;;;-146.27;87.43;33442.16;5027601;28;20091;-70
2023/11/17 06:54:21;;;;;;;24.17;9.52;;;;;;;-146.27;87.52;33430.28;5030504;28;20460;-73
2023/11/17 06:56:47;;;;;;;16.90;9.65;;;;;;;-146.27;87.37;33426.28;5031780;28;20021;-72
2023/11/17 06:59:15;;;;;;;23.50;11.00;;;;;;;-146.27;87.59;33462.00;5030593;28;20029;-72
2023/11/17 07:01:41;;;;;;;27.85;12.05;;;;;;;-146.27;87.63;33422.34;5039698;28;20025;-73
2023/11/17 07:04:07;;;;;;;27.23;11.65;;;;;;;-146.27;87.60;33438.19;5041158;28;20017;-73
2023/11/17 07:06:34;;;;;;;22.77;10.82;;;;;;;-146.27;87.69;33434.22;5045941;28;20533;-72
2023/11/17 07:09:15;;;;;;;28.20;12.32;;;;;;;-146.27;87.65;33406.47;5033207;28;20060;-71
2023/11/17 07:11:41;;;;;;;22.70;10.82;;;;;;;-146.27;87.66;33424.31;5037850;28;20396;-72
2023/11/17 07:14:07;;;;;;;23.95;11.07;;;;;;;-146.27;87.83;33422.34;5033201;28;20144;-72
2023/11/17 07:16:34;;;;;;;18.73;10.90;;;;;;;-146.27;87.79;33432.25;5037588;28;20039;-72
2023/11/17 07:18:59;;;;;;;24.15;11.60;;;;;;;-146.27;87.81;33422.34;5036279;28;20041;-72
2023/11/17 07:21:25;;;;;;;20.40;11.07;;;;;;;-146.27;87.59;33406.47;5040920;28;20492;-73
2023/11/17 07:23:50;;;;;;;21.13;10.60;;;;;;;-146.27;87.74;33430.28;5031578;28;20540;-73
2023/11/17 07:26:18;;;;;;;20.02;10.25;;;;;;;-146.27;87.82;33408.44;5041115;28;20067;-73
2023/11/17 07:28:46;;;;;;;23.40;11.65;;;;;;;-146.27;87.59;33402.50;5035602;28;20037;-72
2023/11/17 07:31:12;;;;;;;19.65;10.88;;;;;;;-146.27;87.88;33362.81;5041987;28;20034;-72
2023/11/17 07:33:38;;;;;;;24.35;10.88;;;;;;;-146.27;87.77;33410.44;5051118;28;20048;-73
2023/11/17 07:36:03;;;;;;;24.88;11.20;;;;;;;-146.27;87.70;33410.44;5052519;28;20060;-72
2023/11/17 07:38:29;;;;;;;24.88;11.13;;;;;;;-146.27;87.67;33420.34;5046876;28;20437;-71
2023/11/17 07:40:54;;;;;;;20.48;11.25;;;;;;;-146.27;87.54;33368.75;5029577;28;20048;-73
2023/11/17 07:43:20;;;;;;;21.15;10.88;;;;;;;-146.27;87.95;33410.44;5038300;28;20684;-72
2023/11/17 07:45:46;;;;;;;20.33;10.80;;;;;;;-146.27;87.67;33382.66;5043324;28;20113;-73
2023/11/17 07:48:12;;;;;;;26.45;11.63;;;;;;;-146.27;87.48;33420.34;5032393;28;20025;-72
2023/11/17 07:50:41;;;;;;;28.75;11.48;;;;;;;-146.27;87.89;33392.56;5024473;28;20029;-73
2023/11/17 07:53:07;;;;;;;23.63;13.55;;;;;;;-146.27;88.06;33418.38;5049898;28;20021;-73
2023/11/17 07:55:34;;;;;;;30.38;13.20;;;;;;;-146.27;87.73;33388.59;5050317;28;20029;-70
2023/11/17 07:58:01;;;;;;;26.20;12.85;;;;;;;-146.27;87.78;33331.06;5052260;28;20109;-71
2023/11/17 08:00:31;;;;;;;24.33;12.63;;;;;;;-146.27;87.58;33325.09;5046853;28;20033;-71
2023/11/17 08:02:56;;;;;;;24.10;11.90;;;;;;;-146.27;87.69;33329.06;5032185;28;20109;-71
2023/11/17 08:05:23;;;;;;;25.92;12.25;;;;;;;-146.27;87.62;33327.09;5032011;28;20131;-71
2023/11/17 08:07:49;;;;;;;35.13;12.52;;;;;;;-146.27;87.65;33289.41;5032096;28;20049;-72
2023/11/17 08:10:15;;;;;;;28.33;12.93;;;;;;;-146.27;87.52;33259.63;5042632;28;20060;-71
2023/11/17 08:12:41;;;;;;;24.67;12.88;;;;;;;-146.27;87.48;33269.56;5052041;28;20049;-71
2023/11/17 08:15:07;;;;;;;23.05;12.68;;;;;;;-146.27;87.34;33267.56;5046932;28;20021;-71
2023/11/17 08:17:32;;;;;;;20.88;12.75;;;;;;;-146.27;87.33;33223.91;5031804;28;20461;-71
2023/11/17 08:19:59;;;;;;;26.73;12.68;;;;;;;-146.27;87.33;33202.09;5031820;28;20021;-70
2023/11/17 08:22:29;;;;;;;21.17;12.52;;;;;;;-146.27;87.10;33215.97;5031736;28;20029;-71
2023/11/17 08:24:56;;;;;;;19.92;11.23;;;;;;;-146.27;87.21;33182.25;5042595;28;20171;-70
2023/11/17 08:27:21;;;;;;;25.58;11.90;;;;;;;-146.27;86.89;33172.34;5051547;28;20036;-71
2023/11/17 08:29:47;;;;;;;23.35;11.55;;;;;;;-146.27;87.03;33150.50;5050211;28;20097;-70
2023/11/17 08:32:12;;;;;;;20.95;12.77;;;;;;;-146.27;86.92;33138.59;5031378;28;20025;-71
2023/11/17 08:34:38;;;;;;;22.95;10.95;;;;;;;-146.27;86.71;33140.59;5042121;28;20025;-70
2023/11/17 08:37:05;;;;;;;20.65;11.60;;;;;;;-146.27;86.79;33114.78;5037038;28;20382;-71
2023/11/17 08:39:34;;;;;;;22.25;11.52;;;;;;;-146.27;86.56;33112.81;5031924;28;20465;-70
2023/11/17 08:41:59;;;;;;;26.42;12.00;;;;;;;-146.27;86.53;33073.13;5041279;28;20116;-72
2023/11/17 08:44:27;;;;;;;20.23;12.32;;;;;;;-146.27;86.59;33081.06;5030652;28;20644;-70
2023/11/17 08:46:53;;;;;;;21.05;11.48;;;;;;;-146.27;86.59;33021.53;5028696;28;20025;-71
2023/11/17 08:49:18;;;;;;;22.33;13.23;;;;;;;-146.27;86.66;33001.72;5031422;28;20028;-70
2023/11/17 08:51:46;;;;;;;26.10;12.77;;;;;;;-146.27;86.49;32971.94;5031105;28;20041;-70
2023/11/17 08:54:12;;;;;;;23.20;13.38;;;;;;;-146.27;86.53;32962.03;5031219;28;20034;-70
2023/11/17 08:56:38;;;;;;;29.48;14.68;;;;;;;-146.27;86.32;32958.06;5031294;28;20033;-70
2023/11/17 08:59:03;;;;;;;26.00;14.32;;;;;;;-146.27;86.23;32918.38;5030416;28;20048;-71
2023/11/17 09:01:29;;;;;;;34.25;16.40;;;;;;;-146.27;86.02;32922.34;5036320;28;20235;-71
2023/11/17 09:03:54;;;;;;;26.58;15.38;;;;;;;-146.27;85.94;32844.97;5031045;28;20025;-71
2023/11/17 09:06:20;;;;;;;25.75;14.15;;;;;;;-146.27;84.84;32817.19;5029747;28;20025;-71
2023/11/17 09:08:46;;;;;;;22.23;13.18;;;;;;;-146.27;84.59;32831.09;5030739;28;20033;-71
2023/11/17 09:11:11;;;;;;;22.65;13.35;;;;;;;-146.27;84.26;32817.19;5031117;28;20017;-75
2023/11/17 09:13:37;;;;;;;22.88;13.52;;;;;;;-146.27;83.39;32811.25;5029509;28;20021;-71
2023/11/17 09:16:03;;;;;;;21.60;13.05;;;;;;;-146.27;83.12;32757.69;5042512;28;20514;-72
2023/11/17 09:18:31;;;;;;;22.10;13.13;;;;;;;-146.27;82.59;32708.09;5050462;28;20075;-71
2023/11/17 09:20:57;;;;;;;21.08;12.25;;;;;;;-146.27;82.18;32787.44;5048646;28;20067;-72
2023/11/17 09:23:23;;;;;;;19.80;11.55;;;;;;;-146.27;81.71;32670.41;5050621;28;20057;-71
2023/11/17 09:25:49;;;;;;;21.80;11.90;;;;;;;-146.27;81.40;32696.19;5050424;28;20024;-71
2023/11/17 09:28:16;;;;;;;24.33;11.98;;;;;;;-146.27;81.31;32692.22;5033182;28;20136;-72
2023/11/17 09:30:42;;;;;;;22.58;11.18;;;;;;;-146.27;81.00;32634.69;5036822;28;20363;-70
2023/11/17 09:33:08;;;;;;;22.27;11.57;;;;;;;-146.27;80.53;32712.06;5028878;28;20025;-70
2023/11/17 09:35:36;;;;;;;19.88;11.32;;;;;;;-146.27;80.07;32817.19;5026420;28;20528;-73
2023/11/17 09:38:04;;;;;;;22.33;10.88;;;;;;;-146.27;79.74;32694.22;5049176;28;20029;-71
2023/11/17 09:40:33;;;;;;;17.20;9.75;;;;;;;-146.27;79.18;32668.41;5047324;28;20100;-71
2023/11/17 09:43:24;;;;;;;15.80;10.40;;;;;;;-146.27;79.44;32575.19;5029223;28;20029;-71
2023/11/17 09:45:54;;;;;;;20.38;10.75;;;;;;;-146.27;78.62;32573.19;5028913;28;20076;-71
2023/11/17 09:48:21;;;;;;;20.17;10.30;;;;;;;-146.27;77.92;32573.19;5032005;28;20032;-71
2023/11/17 09:50:50;;;;;;;18.77;11.48;;;;;;;-146.27;78.27;32690.25;5034260;28;20423;-71
2023/11/17 09:53:17;;;;;;;19.67;10.95;;;;;;;-146.27;78.30;32600.97;5050102;28;20017;-71
2023/11/17 09:55:44;;;;;;;18.13;10.98;;;;;;;-146.27;77.58;32497.81;5026920;28;20029;-74
2023/11/17 09:58:12;;;;;;;17.42;11.10;;;;;;;-146.27;77.54;32408.56;5039865;28;20032;-70
2023/11/17 10:00:40;;;;;;;20.60;11.75;;;;;;;-146.27;77.25;32543.44;5030488;28;20497;-69
2023/11/17 10:03:08;;;;;;;23.08;12.35;;;;;;;-146.27;77.16;32462.09;5050663;28;20104;-71
2023/11/17 10:05:36;;;;;;;18.55;10.98;;;;;;;-146.27;76.98;32585.09;5044451;28;20072;-70
2023/11/17 10:08:05;;;;;;;22.58;11.18;;;;;;;-146.27;76.88;32634.69;5030541;28;20020;-70
2023/11/17 10:10:38;;;;;;;23.40;10.38;;;;;;;-146.27;76.45;32525.59;5033176;28;20028;-70
2023/11/17 10:13:11;;;;;;;16.70;9.05;;;;;;;-146.27;75.87;32656.50;5027655;28;20359;-72
2023/11/17 10:15:50;;;;;;;16.38;9.10;;;;;;;-146.27;75.10;32509.72;5030585;28;20112;-71
2023/11/17 10:18:32;;;;;;;17.38;9.27;;;;;;;-146.27;75.34;32503.75;5031239;28;20054;-71
2023/11/17 10:21:00;;;;;;;20.33;10.65;;;;;;;-146.27;75.60;32466.06;5036461;28;20473;-71
2023/11/17 10:23:27;;;;;;;18.63;9.77;;;;;;;-146.27;76.24;32505.75;5043622;28;20570;-70
2023/11/17 10:25:56;;;;;;;18.88;9.40;;;;;;;-146.27;76.28;32553.34;5032185;28;20024;-70
2023/11/17 10:28:24;;;;;;;14.45;8.82;;;;;;;-146.27;75.73;32509.72;5032627;28;20036;-72
2023/11/17 10:30:54;;;;;;;16.38;8.77;;;;;;;-146.27;76.00;32565.25;5033400;28;20032;-71
2023/11/17 10:33:25;;;;;;;14.48;7.85;;;;;;;-146.27;75.40;32533.53;5033232;28;20426;-72
2023/11/17 10:36:10;;;;;;;14.13;7.40;;;;;;;-146.27;75.03;32485.91;5032209;28;20065;-71
2023/11/17 10:38:37;;;;;;;15.23;8.63;;;;;;;-146.27;74.77;32509.72;5035824;28;20043;-72
2023/11/17 10:41:22;;;;;;;13.77;7.45;;;;;;;-146.27;74.88;32648.56;5053113;28;20032;-72
2023/11/17 10:43:48;;;;;;;14.85;7.70;;;;;;;-146.27;74.19;32474.00;5053496;28;20032;-71
2023/11/17 10:46:14;;;;;;;18.83;7.95;;;;;;;-146.27;73.89;32398.63;5045639;28;20032;-71
2023/11/17 10:48:39;;;;;;;13.07;7.45;;;;;;;-146.27;73.56;32132.84;5044864;28;20028;-70
2023/11/17 10:51:05;;;;;;;8.77;5.80;;;;;;;-146.27;70.27;31896.78;5037587;28;20028;-70
2023/11/17 10:53:30;;;;;;;7.53;4.80;;;;;;;-146.27;66.21;31779.78;5032309;28;20049;-69
2023/11/17 10:55:57;;;;;;;11.95;5.70;;;;;;;-146.27;63.30;31668.72;5031231;28;20144;-71
2023/11/17 10:58:24;;;;;;;8.73;4.95;;;;;;;-146.27;62.74;31797.63;5031389;28;20035;-72
2023/11/17 11:00:51;;;;;;;7.88;4.45;;;;;;;-146.27;63.21;31886.88;5031884;28;20036;-70
2023/11/17 11:03:18;;;;;;;6.22;4.30;;;;;;;-146.27;63.10;32097.13;5032431;28;20394;-71
2023/11/17 11:05:45;;;;;;;4.68;3.55;;;;;;;-146.27;63.51;32035.63;5033212;28;20024;-71
2023/11/17 11:08:16;;;;;;;7.45;2.95;;;;;;;-146.27;63.71;32089.19;5027292;28;20029;-72